createdAt,value
2023-04-02T00:01:44.508Z,96918.72
2023-04-02T00:05:34.943Z,96933.44
2023-04-02T00:08:44.888Z,96922.66
2023-04-02T00:11:56.769Z,96928.53
2023-04-02T00:15:05.476Z,96930.16
2023-04-02T00:18:20.343Z,96923.59
2023-04-02T00:21:38.793Z,96929.75
2023-04-02T00:24:53.783Z,96928.31
2023-04-02T00:28:06.164Z,96930.13
2023-04-02T00:31:16.404Z,96932.34
2023-04-02T00:34:29.124Z,96929.50
2023-04-02T00:37:39.483Z,96943.03
2023-04-02T00:40:50.739Z,96931.94
2023-04-02T00:43:59.098Z,96937.84
2023-04-02T00:47:23.304Z,96939.44
2023-04-02T00:50:38.695Z,96938.69
2023-04-02T00:53:50.570Z,96943.38
2023-04-02T00:57:01.653Z,96938.41
2023-04-02T01:00:27.045Z,96933.16
2023-04-02T01:03:45.257Z,96936.63
2023-04-02T01:06:53.806Z,96944.41
2023-04-02T01:10:27.340Z,96947.88
2023-04-02T01:13:45.437Z,96946.41
2023-04-02T01:17:06.360Z,96944.19
2023-04-02T01:20:55.324Z,96949.88
2023-04-02T01:24:09.010Z,96947.81
2023-04-02T01:27:28.996Z,96948.03
2023-04-02T01:30:41.894Z,96949.25
2023-04-02T01:33:48.245Z,96950.22
2023-04-02T01:37:22.600Z,96948.38
2023-04-02T01:40:50.789Z,96958.56
2023-04-02T01:44:12.409Z,96952.25
2023-04-02T01:47:32.111Z,96956.78
2023-04-02T01:50:42.520Z,96958.81
2023-04-02T01:53:48.770Z,96963.94
2023-04-02T01:56:56.193Z,96953.50
2023-04-02T02:00:20.422Z,96953.75
2023-04-02T02:03:38.699Z,96961.69
2023-04-02T02:06:46.406Z,96970.44
2023-04-02T02:09:56.512Z,96966.94
2023-04-02T02:13:09.448Z,96970.72
2023-04-02T02:16:30.301Z,96974.25
2023-04-02T02:19:46.607Z,96973.63
2023-04-02T02:22:55.690Z,96966.38
2023-04-02T02:26:02.368Z,96965.59
2023-04-02T02:29:21.850Z,96970.06
2023-04-02T02:32:35.385Z,96975.31
2023-04-02T02:35:56.424Z,96984.06
2023-04-02T02:39:27.172Z,96981.88
2023-04-02T02:42:41.924Z,96979.25
2023-04-02T02:45:51.994Z,96985.81
2023-04-02T02:49:04.644Z,96986.22
2023-04-02T02:52:22.454Z,96986.22
2023-04-02T02:55:43.483Z,96984.72
2023-04-02T02:58:58.431Z,96995.97
2023-04-02T03:02:21.557Z,96996.09
2023-04-02T03:05:31.664Z,97008.97
2023-04-02T03:08:59.239Z,96999.91
2023-04-02T03:12:39.047Z,97005.19
2023-04-02T03:16:05.189Z,97003.34
2023-04-02T03:19:31.547Z,97011.69
2023-04-02T03:22:49.650Z,97003.31
2023-04-02T03:26:11.764Z,97010.06
2023-04-02T03:29:33.400Z,97015.09
2023-04-02T03:32:46.555Z,97021.19
2023-04-02T03:36:08.289Z,97009.34
2023-04-02T03:39:29.339Z,97023.84
2023-04-02T03:42:52.572Z,97029.53
2023-04-02T03:46:21.711Z,97029.38
2023-04-02T03:49:39.677Z,97028.75
2023-04-02T03:52:46.622Z,97034.66
2023-04-02T03:55:58.235Z,97040.56
2023-04-02T03:59:25.069Z,97041.75
2023-04-02T04:02:52.530Z,97047.44
2023-04-02T04:06:08.040Z,97047.50
2023-04-02T04:09:30.060Z,97045.78
2023-04-02T04:12:43.811Z,97051.09
2023-04-02T04:16:06.664Z,97049.50
2023-04-02T04:19:25.656Z,97056.81
2023-04-02T04:22:34.298Z,97065.97
2023-04-02T04:26:05.796Z,97066.16
2023-04-02T04:29:35.098Z,97066.53
2023-04-02T04:32:58.753Z,97071.94
2023-04-02T04:36:09.373Z,97067.91
2023-04-02T04:39:30.002Z,97070.75
2023-04-02T04:42:46.494Z,97071.06
2023-04-02T04:46:08.701Z,97078.22
2023-04-02T04:49:30.584Z,97082.53
2023-04-02T04:52:42.421Z,97089.50
2023-04-02T04:55:53.641Z,97091.94
2023-04-02T04:59:09.491Z,97089.28
2023-04-02T05:02:36.486Z,97086.56
2023-04-02T05:05:50.758Z,97099.72
2023-04-02T05:09:21.496Z,97108.34
2023-04-02T05:12:43.336Z,97113.28
2023-04-02T05:16:08.162Z,97120.84
2023-04-02T05:19:26.586Z,97119.88
2023-04-02T05:22:47.547Z,97119.03
2023-04-02T05:26:03.122Z,97120.97
2023-04-02T05:29:22.320Z,97133.31
2023-04-02T05:32:39.941Z,97131.88
2023-04-02T05:35:57.466Z,97133.88
2023-04-02T05:39:19.329Z,97137.59
2023-04-02T05:42:41.186Z,97137.16
2023-04-02T05:46:01.431Z,97149.47
2023-04-02T05:49:21.187Z,97158.59
2023-04-02T05:52:37.371Z,97160.13
2023-04-02T05:56:00.073Z,97165.56
2023-04-02T05:59:25.350Z,97174.13
2023-04-02T06:02:43.547Z,97173.16
2023-04-02T06:05:55.497Z,97187.28
2023-04-02T06:09:14.790Z,97188.41
2023-04-02T06:12:38.266Z,97193.03
2023-04-02T06:15:47.984Z,97202.56
2023-04-02T06:19:03.076Z,97210.88
2023-04-02T06:22:27.603Z,97217.13
2023-04-02T06:25:45.861Z,97220.06
2023-04-02T06:29:08.071Z,97235.59
2023-04-02T06:32:16.186Z,97246.69
2023-04-02T06:35:40.201Z,97245.84
2023-04-02T06:38:50.239Z,97258.34
2023-04-02T06:42:19.184Z,97269.22
2023-04-02T06:46:01.181Z,97279.28
2023-04-02T06:49:29.279Z,97282.72
2023-04-02T06:52:49.735Z,97291.44
2023-04-02T06:56:07.293Z,97304.97
2023-04-02T06:59:16.002Z,97308.06
2023-04-02T07:02:40.428Z,97300.47
2023-04-02T07:05:53.173Z,97309.66
2023-04-02T07:09:00.472Z,97310.25
2023-04-02T07:12:15.786Z,97323.28
2023-04-02T07:15:24.862Z,97323.81
2023-04-02T07:18:36.858Z,97330.06
2023-04-02T07:21:53.032Z,97344.09
2023-04-02T07:25:01.090Z,97348.72
2023-04-02T07:28:19.147Z,97358.31
2023-04-02T07:31:32.882Z,97355.69
2023-04-02T07:34:43.012Z,97367.56
2023-04-02T07:37:49.286Z,97375.03
2023-04-02T07:40:56.867Z,97382.72
2023-04-02T07:44:03.440Z,97380.41
2023-04-02T07:47:10.961Z,97391.25
2023-04-02T07:50:20.124Z,97387.22
2023-04-02T07:53:33.430Z,97401.28
2023-04-02T07:56:40.901Z,97402.97
2023-04-02T07:59:47.848Z,97413.59
2023-04-02T08:02:54.905Z,97414.94
2023-04-02T08:06:04.864Z,97416.16
2023-04-02T08:09:11.100Z,97432.81
2023-04-02T08:12:18.795Z,97432.38
2023-04-02T08:15:25.031Z,97448.75
2023-04-02T08:18:32.426Z,97451.75
2023-04-02T08:21:41.073Z,97452.53
2023-04-02T08:24:48.010Z,97476.19
2023-04-02T08:27:54.504Z,97477.59
2023-04-02T08:31:01.756Z,97485.75
2023-04-02T08:34:09.584Z,97486.38
2023-04-02T08:37:19.229Z,97494.91
2023-04-02T08:40:36.673Z,97501.63
2023-04-02T08:44:21.645Z,97501.81
2023-04-02T08:47:43.984Z,97503.72
2023-04-02T08:51:18.296Z,97517.78
2023-04-02T08:54:32.853Z,97519.69
2023-04-02T08:57:54.890Z,97521.00
2023-04-02T09:01:09.059Z,97526.81
2023-04-02T09:04:26.234Z,97537.06
2023-04-02T09:07:34.185Z,97534.72
2023-04-02T09:10:54.113Z,97542.25
2023-04-02T09:14:08.829Z,97542.53
2023-04-02T09:17:23.871Z,97555.97
2023-04-02T09:20:31.764Z,97558.28
2023-04-02T09:23:38.967Z,97557.66
2023-04-02T09:26:47.711Z,97562.44
2023-04-02T09:30:08.640Z,97562.94
2023-04-02T09:33:14.899Z,97583.47
2023-04-02T09:36:38.863Z,97582.03
2023-04-02T09:39:45.566Z,97589.44
2023-04-02T09:43:15.154Z,97594.72
2023-04-02T09:46:27.714Z,97600.38
2023-04-02T09:49:38.919Z,97606.44
2023-04-02T09:52:45.200Z,97611.56
2023-04-02T09:55:52.084Z,97615.75
2023-04-02T09:59:25.357Z,97626.97
2023-04-02T10:02:33.896Z,97628.34
2023-04-02T10:05:41.504Z,97631.41
2023-04-02T10:08:49.895Z,97636.28
2023-04-02T10:12:00.592Z,97646.56
2023-04-02T10:15:30.661Z,97635.19
2023-04-02T10:18:54.693Z,97645.28
2023-04-02T10:22:18.868Z,97646.66
2023-04-02T10:25:44.387Z,97660.34
2023-04-02T10:29:19.470Z,97656.91
2023-04-02T10:32:40.407Z,97665.06
2023-04-02T10:36:05.471Z,97663.38
2023-04-02T10:39:39.571Z,97671.44
2023-04-02T10:43:05.121Z,97678.00
2023-04-02T10:46:31.392Z,97681.00
2023-04-02T10:49:53.920Z,97680.72
2023-04-02T10:53:12.452Z,97686.94
2023-04-02T10:56:20.084Z,97683.63
2023-04-02T10:59:40.616Z,97691.78
2023-04-02T11:03:01.561Z,97698.38
2023-04-02T11:06:26.198Z,97699.88
2023-04-02T11:09:44.500Z,97702.13
2023-04-02T11:13:02.597Z,97716.63
2023-04-02T11:16:10.833Z,97716.09
2023-04-02T11:19:31.539Z,97722.34
2023-04-02T11:22:41.827Z,97727.19
2023-04-02T11:25:50.703Z,97731.47
2023-04-02T11:29:24.405Z,97732.16
2023-04-02T11:32:43.521Z,97732.06
2023-04-02T11:35:50.582Z,97741.25
2023-04-02T11:39:04.622Z,97746.78
2023-04-02T11:42:37.089Z,97739.28
2023-04-02T11:45:59.950Z,97750.81
2023-04-02T11:49:44.482Z,97748.63
2023-04-02T11:52:57.691Z,97746.53
2023-04-02T11:56:24.964Z,97756.38
2023-04-02T11:59:49.271Z,97759.69
2023-04-02T12:03:32.858Z,97761.91
2023-04-02T12:07:02.555Z,97767.34
2023-04-02T12:10:24.334Z,97772.88
2023-04-02T12:13:59.097Z,97766.34
2023-04-02T12:17:24.641Z,97774.66
2023-04-02T12:20:36.045Z,97783.59
2023-04-02T12:23:43.884Z,97776.06
2023-04-02T12:26:50.145Z,97786.88
2023-04-02T12:30:17.645Z,97783.44
2023-04-02T12:33:37.570Z,97785.59
2023-04-02T12:37:09.622Z,97795.69
2023-04-02T12:40:22.686Z,97792.50
2023-04-02T12:43:32.142Z,97795.94
2023-04-02T12:46:43.543Z,97800.81
2023-04-02T12:49:53.357Z,97799.44
2023-04-02T12:53:01.284Z,97800.56
2023-04-02T12:56:27.607Z,97807.59
2023-04-02T12:59:39.476Z,97823.78
2023-04-02T13:03:22.807Z,97819.50
2023-04-02T13:06:34.369Z,97829.91
2023-04-02T13:09:51.855Z,97828.75
2023-04-02T13:13:01.012Z,97833.44
2023-04-02T13:16:28.179Z,97833.31
2023-04-02T13:19:38.067Z,97840.09
2023-04-02T13:22:45.310Z,97839.22
2023-04-02T13:25:52.054Z,97847.19
2023-04-02T13:29:07.035Z,97852.28
2023-04-02T13:32:16.784Z,97853.97
2023-04-02T13:35:27.498Z,97845.22
2023-04-02T13:38:38.537Z,97857.81
2023-04-02T13:42:02.923Z,97854.53
2023-04-02T13:45:28.505Z,97856.75
2023-04-02T13:48:35.587Z,97859.31
2023-04-02T13:51:49.353Z,97863.31
2023-04-02T13:55:01.739Z,97870.84
2023-04-02T13:58:09.172Z,97872.25
2023-04-02T14:01:19.776Z,97871.44
2023-04-02T14:04:35.204Z,97883.59
2023-04-02T14:08:09.266Z,97881.94
2023-04-02T14:11:43.165Z,97889.16
2023-04-02T14:15:16.036Z,97896.34
2023-04-02T14:18:58.979Z,97907.56
2023-04-02T14:22:29.179Z,97903.41
2023-04-02T14:25:51.671Z,97908.25
2023-04-02T14:29:10.949Z,97904.94
2023-04-02T14:32:29.045Z,97903.28
2023-04-02T14:35:45.256Z,97920.56
2023-04-02T14:39:05.212Z,97932.22
2023-04-02T14:42:23.928Z,97922.69
2023-04-02T14:45:52.098Z,97935.00
2023-04-02T14:49:10.179Z,97937.34
2023-04-02T14:52:23.094Z,97940.94
2023-04-02T14:55:40.417Z,97942.47
2023-04-02T14:58:58.303Z,97942.03
2023-04-02T15:02:17.203Z,97944.81
2023-04-02T15:05:31.277Z,97941.75
2023-04-02T15:09:02.198Z,97950.09
2023-04-02T15:12:26.888Z,97952.28
2023-04-02T15:15:49.829Z,97954.78
2023-04-02T15:19:00.330Z,97964.19
2023-04-02T15:22:31.205Z,97956.44
2023-04-02T15:25:51.726Z,97968.06
2023-04-02T15:29:27.805Z,97975.84
2023-04-02T15:32:43.804Z,97974.00
2023-04-02T15:36:01.846Z,97993.53
2023-04-02T15:39:48.052Z,97985.78
2023-04-02T15:43:08.043Z,97990.81
2023-04-02T15:46:29.463Z,97989.28
2023-04-02T15:49:46.656Z,98006.53
2023-04-02T15:53:11.357Z,98002.44
2023-04-02T15:56:31.688Z,98008.09
2023-04-02T16:00:16.155Z,98004.06
2023-04-02T16:03:47.667Z,98008.75
2023-04-02T16:07:33.645Z,98012.66
2023-04-02T16:10:45.412Z,98022.47
2023-04-02T16:13:51.791Z,98029.16
2023-04-02T16:17:17.678Z,98035.13
2023-04-02T16:20:34.960Z,98043.25
2023-04-02T16:23:45.953Z,98033.69
2023-04-02T16:27:12.014Z,98033.81
2023-04-02T16:30:44.483Z,98046.03
2023-04-02T16:34:06.348Z,98042.59
2023-04-02T16:37:30.334Z,98053.28
2023-04-02T16:41:00.495Z,98057.28
2023-04-02T16:44:35.424Z,98058.81
2023-04-02T16:48:03.259Z,98063.34
2023-04-02T16:51:23.655Z,98056.56
2023-04-02T16:54:46.801Z,98069.34
2023-04-02T16:58:17.344Z,98072.53
2023-04-02T17:01:39.224Z,98083.03
2023-04-02T17:05:14.646Z,98085.56
2023-04-02T17:08:28.287Z,98086.03
2023-04-02T17:11:45.968Z,98094.00
2023-04-02T17:15:02.664Z,98092.22
2023-04-02T17:18:21.602Z,98096.53
2023-04-02T17:21:31.012Z,98101.63
2023-04-02T17:24:47.728Z,98109.56
2023-04-02T17:27:59.548Z,98113.41
2023-04-02T17:31:20.948Z,98116.25
2023-04-02T17:34:27.138Z,98112.31
2023-04-02T17:37:47.141Z,98116.69
2023-04-02T17:41:05.862Z,98125.75
2023-04-02T17:44:41.559Z,98119.88
2023-04-02T17:48:06.162Z,98131.41
2023-04-02T17:51:30.668Z,98128.88
2023-04-02T17:54:56.470Z,98136.63
2023-04-02T17:58:24.648Z,98136.41
2023-04-02T18:01:39.869Z,98137.84
2023-04-02T18:05:10.080Z,98146.81
2023-04-02T18:08:29.982Z,98146.91
2023-04-02T18:11:55.376Z,98143.78
2023-04-02T18:15:42.980Z,98146.91
2023-04-02T18:19:13.994Z,98149.53
2023-04-02T18:22:37.755Z,98157.06
2023-04-02T18:25:59.461Z,98162.06
2023-04-02T18:29:30.422Z,98162.16
2023-04-02T18:33:10.774Z,98178.16
2023-04-02T18:36:28.829Z,98181.16
2023-04-02T18:40:01.438Z,98168.16
2023-04-02T18:43:30.946Z,98176.63
2023-04-02T18:46:52.660Z,98175.66
2023-04-02T18:50:20.275Z,98181.22
2023-04-02T18:53:32.425Z,98188.66
2023-04-02T18:56:43.395Z,98192.84
2023-04-02T19:00:00.510Z,98190.31
2023-04-02T19:03:22.613Z,98195.53
2023-04-02T19:06:39.305Z,98196.03
2023-04-02T19:09:51.018Z,98197.63
2023-04-02T19:13:00.815Z,98203.97
2023-04-02T19:16:43.865Z,98205.56
2023-04-02T19:20:11.153Z,98205.81
2023-04-02T19:23:46.868Z,98203.41
2023-04-02T19:27:05.642Z,98211.06
2023-04-02T19:31:01.510Z,98209.22
2023-04-02T19:34:28.003Z,98219.94
2023-04-02T19:37:45.128Z,98214.78
2023-04-02T19:41:04.058Z,98221.84
2023-04-02T19:44:14.679Z,98219.88
2023-04-02T19:47:25.878Z,98227.31
2023-04-02T19:50:32.686Z,98229.94
2023-04-02T19:53:39.609Z,98227.09
2023-04-02T19:56:45.867Z,98233.63
2023-04-02T19:59:52.979Z,98226.56
2023-04-02T20:03:01.782Z,98237.09
2023-04-02T20:06:08.961Z,98239.19
2023-04-02T20:09:15.037Z,98235.81
2023-04-02T20:12:22.014Z,98237.63
2023-04-02T20:15:28.179Z,98233.84
2023-04-02T20:18:38.390Z,98241.38
2023-04-02T20:21:44.431Z,98239.72
2023-04-02T20:24:51.373Z,98246.47
2023-04-02T20:27:57.445Z,98249.00
2023-04-02T20:31:14.103Z,98257.56
2023-04-02T20:34:22.966Z,98263.28
2023-04-02T20:37:30.448Z,98267.06
2023-04-02T20:40:37.176Z,98258.94
2023-04-02T20:43:44.215Z,98259.31
2023-04-02T20:46:50.253Z,98265.84
2023-04-02T20:49:59.712Z,98269.91
2023-04-02T20:53:08.600Z,98273.63
2023-04-02T20:56:19.764Z,98271.38
2023-04-02T20:59:25.824Z,98279.75
2023-04-02T21:02:33.545Z,98282.84
2023-04-02T21:05:46.763Z,98280.38
2023-04-02T21:08:54.471Z,98273.69
2023-04-02T21:12:00.573Z,98276.97
2023-04-02T21:15:08.371Z,98278.16
2023-04-02T21:18:16.538Z,98283.75
2023-04-02T21:21:31.739Z,98284.38
2023-04-02T21:24:37.740Z,98278.66
2023-04-02T21:27:44.551Z,98291.28
2023-04-02T21:30:50.616Z,98284.34
2023-04-02T21:34:09.738Z,98281.09
2023-04-02T21:37:21.036Z,98292.44
2023-04-02T21:40:27.856Z,98290.63
2023-04-02T21:43:33.810Z,98287.69
2023-04-02T21:46:43.476Z,98295.78
2023-04-02T21:49:49.690Z,98301.28
2023-04-02T21:52:59.175Z,98300.81
2023-04-02T21:56:18.746Z,98298.41
2023-04-02T21:59:29.212Z,98302.84
2023-04-02T22:02:38.697Z,98306.44
2023-04-02T22:06:09.745Z,98308.25
2023-04-02T22:09:22.062Z,98305.59
2023-04-02T22:12:28.967Z,98313.25
2023-04-02T22:15:35.761Z,98323.28
2023-04-02T22:18:46.558Z,98323.78
2023-04-02T22:21:53.417Z,98325.44
2023-04-02T22:25:03.540Z,98329.84
2023-04-02T22:28:09.729Z,98343.72
2023-04-02T22:31:25.229Z,98331.19
2023-04-02T22:34:31.639Z,98341.69
2023-04-02T22:37:38.405Z,98348.34
2023-04-02T22:40:47.028Z,98347.53
2023-04-02T22:43:53.894Z,98347.88
2023-04-02T22:46:59.865Z,98357.28
2023-04-02T22:50:09.208Z,98357.78
2023-04-02T22:53:17.322Z,98360.25
2023-04-02T22:56:32.406Z,98360.59
2023-04-02T22:59:38.562Z,98366.81
2023-04-02T23:02:46.931Z,98361.47
2023-04-02T23:06:08.386Z,98361.06
2023-04-02T23:09:18.257Z,98361.22
2023-04-02T23:12:26.985Z,98371.56
2023-04-02T23:15:33.824Z,98360.00
2023-04-02T23:18:41.909Z,98369.53
2023-04-02T23:21:48.975Z,98358.94
2023-04-02T23:24:55.022Z,98362.41
2023-04-02T23:28:04.829Z,98362.63
2023-04-02T23:31:16.199Z,98367.28
2023-04-02T23:34:22.986Z,98368.38
2023-04-02T23:37:31.652Z,98372.44
2023-04-02T23:40:38.457Z,98373.13
2023-04-02T23:43:47.539Z,98372.91
2023-04-02T23:46:54.996Z,98367.53
2023-04-02T23:50:01.174Z,98359.91
2023-04-02T23:53:08.005Z,98370.75
2023-04-02T23:56:14.669Z,98368.13
2023-04-02T23:59:24.041Z,98374.94
